気象予報士の航空気象 2009年08月

*All archives   *Admin

スポンサーサイト

上記の広告は1ヶ月以上更新のないブログに表示されています。
新しい記事を書く事で広告が消せます。
--:--  |  スポンサー広告  |  EDIT  |  Top↑

2009.08.31 (Mon)

2009年8月 第32回 気象予報士試験 解答 速報

気象予報士 解答 速報、一般 専門



流しで解いているため、あくまで速報、責任はもちません。


ちゃんとした解答が出た場合や間違いに気づいた場合は、修正UPします。



一般

問01 5
問02 5 (修正)
問03 3
問04 3
問05 3 (修正)
問06 2
問07 1
問08 3
問09 5
問10 3
問11 2
問12 4
問13 4
問14 2
問15 2


専門

問01 2
問02 1
問03 3
問04 4
問05 3
問06 4
問07 1
問08 4
問09 1
問10 3
問11 3
問12 1
問13 3
問14 5
問15 4


ブログランキングに参加しています。
にほんブログ村 環境ブログ 天気・気象学へ
にほんブログ村
応援クリックをおねがします。
 

以下、アフィリエイトサイトです。






スポンサーサイト
22:28  |  気象予報士んの勉強法  |  TB(0)  |  CM(0)  |  EDIT  |  Top↑

2009.08.31 (Mon)

上陸か?

昨日の選挙に大きな影響をおよぼしたかどうかわかりませんが、台風11号が関東に接近中です。


上陸の恐れもあります。


台風11号0831


今回の台風名は「クロヴァン」ベトナムの木の名前のようです。


台風11号が接近の中、用事と買い物、ちょっと体調も悪く、病院に行くかも。


風雨すごいよぉ。。。


ブログランキングに参加しています。
にほんブログ村 環境ブログ 天気・気象学へ
にほんブログ村
応援クリックをおねがします。
 

以下、アフィリエイトサイトです。







11:16  |  時事  |  TB(0)  |  CM(0)  |  EDIT  |  Top↑

2009.08.30 (Sun)

ゲリラ豪雨に物申す その3

 「ゲリラ豪雨」とよばれるような(私は使いたくないのですが)、予期できないような豪雨であったかどうかは、みなさんの判断にまかせます。


19日に沖縄のガーブ川で発生した鉄砲水について、データ整理ができましたので、UPします。


まず、天気図。

ガーブ川洪水天気図



発生場所。

ガーブ川位置

ガーブ川位置詳細


那覇空港のMETAR時系列。

190230Z 36016KT 9999 VCSH FEW015 FEW020TCU 33/27 Q1010
190243Z 36016KT 9999 SHRA FEW015 FEW020TCU 33/27 Q1009
RMK 1CU015 2TCU020 A2982 3000SW TCU 3KM E AND 10KM NE MOV SW

19日午前11時30分ころ、北風 時より驟雨(スコール)
 搭状積雲が3km東 10km北東、南西進。

190243Z 36016KT 9999 SHRA FEW015 FEW020TCU 33/27 Q1009
RMK 1CU015 2TCU020 A2982 3000SW TCU 3KM E AND 10KM NE MOV SW

190250Z 36016KT 9999 +SHRA FEW015 FEW020TCU 31/26 Q1009
RMK 1CU015 2TCU020 A2982 3000SE-S TCU 3KM E-S MOV SW

気温が2度降下、強度の驟雨。

190300Z 36014KT 9999 SHRA FEW012 FEW020TCU 31/26 Q1010

190306Z 36014KT 5000 +SHRA FEW010 SCT020TCU 30/26 Q1010
RMK 2CU010 4TCU020 A2982 9999W TCU NE-OHD-SW MOV SW

塔状積雲が空港直上に移動。

190310Z 36014KT 5000 +SHRA FEW010 SCT020TCU 30/26 Q1010
RMK 2CU010 4TCU020 A2982 9999W TCU NE-OHD-SW MOV SW

190313Z 36014KT 5000 +SHRA FEW010 SCT020TCU 30/26 Q1010
RMK 2CU010 4TCU020 A2982 9999W TCU NE-OHD-SW MOV SW

190322Z 36014KT 5000 +SHRA FEW010 SCT020TCU 30/26 Q1010
RMK 2CU010 4TCU020 A2982 9999W TCU NE-OHD-SW MOV SW

190330Z 36015KT 3000 +SHRA FEW010 SCT020TCU 30/27 Q1010 WS R36
RMK 2CU010 4TCU020 A2982 9999W TCU NE-OHD-SW MOV SW RI++

降水強度が30mm/hを超える。

190341Z 36016KT 2000 R36/1300VP1800N +SHRA FEW010 SCT020TCU 29/27 Q1009
RMK 2CU010 4TCU020 A2982 9999E TCU NE-OHD-SW MOV SW RI++

190345Z 36018KT 1500 R36/P1800N +SHRA FEW007 BKN020TCU 28/26 Q1010
RMK 1ST007 5TCU020 A2983 9999E TCU OHD-SW AND 10KM NE MOV SW

190347Z 34015G25KT 9999 R36/P1800N +SHRA FEW007 SCT020TCU 27/25 Q1010

風が荒れ始め、気温がさらに下がる。

190400Z 34015KT 9999 +TSRA FEW007 SCT020CB 28/26 Q1010
RMK 2ST007 3CB020 A2983 3000SW FBL TS OHD CB OHD TCU 8KM NE MOV SW RI++

降水強度30mm/hを超える雨と、雷。

190404Z VRB09G22KT 1500 R36/0350V0800N +TSRA FEW007 SCT015 BKN020CB 28/25 Q1009
RMK 2ST007 3CU015 5CB020 A2982 FBL TS OHD CB OHD MOV SW RI++

190410Z VRB10G25KT 0800 R36/0350V1100U +TSRA FEW007 SCT015 BKN020CB 27/26 Q1010
RMK 2ST007 3CU015 5CB020 A2983 FBL TS OHD MOV SW RI++

190420Z 35020KT 9999 R36/0500V0800U +TSRA FEW007 SCT015 SCT020CB 27/25 Q1010
RMK 2ST007 3CU015 4CB020 A2983 3000S-W FBL TS 5KM SW MOV SW

190422Z 35017G27KT 9999 R36/0600V1000U +TSRA FEW007 SCT015 SCT020CB 27/25 Q1010
RMK 2ST007 3CU015 4CB020 A2983 3000SW-W FBL TS 5KM SW MOV SW

190430Z 36009KT 320V070 9999 R36/0400VP1800D +TSRA FEW007 SCT015 SCT020CB 27/25 Q1009

190437Z 33005KT 270V070 9999 -TSRA FEW007 SCT015 FEW020CB 27/26 Q1009
RMK 1ST007 3CU015 2CB020 A2982 FBL TS 10KM SW CB OHD-SW MOV SW

190451Z 31005KT 280V350 9999 SHRA FEW007 SCT015 FEW020TCU 28/26 Q1009 RETS
RMK 1ST007 3CU015 2TCU020 A2981 5000E TCU 5KM E AND 10KM SW MOV SW

大雨と雷の峠を越えた模様。

190500Z 35005KT 9999 SHRA FEW007 SCT015 SCT020CB 30/27 Q1009 RETS

190530Z 12003KT 090V170 9999 SHRA FEW010 SCT020CB BKN/// 29/26 Q1009

190545Z 15006KT 9999 TSRA FEW010 FEW020CB BKN/// 28/25 Q1009
RMK 2CU010 2CB020 A2979 5000SE-SW FBL TS 5KM S CB 5KM SE-SW MOV SW

190600Z VRB02KT 9999 SHRA FEW010 FEW020CB 29/26 Q1008 RETS

190605Z VRB02KT 9999 VCSH FEW010 FEW020CB 29/27 Q1008 RERA RETS
RMK 2CU010 2CB020 A2979 CB 10KM S-SW MOV SW

190630Z 34007KT 300V010 9999 FEW015 FEW020CB 31/27 Q1008 RERA



ブログランキングに参加しています。
にほんブログ村 環境ブログ 天気・気象学へ
にほんブログ村
応援クリックをおねがします。
 

以下、アフィリエイトサイトです。







02:16  |  気象・天気  |  TB(0)  |  CM(0)  |  EDIT  |  Top↑

2009.08.29 (Sat)

台風11号関東接近か!?

秋雨前線が刺激される可能性も大いにあり、今日から大雨に警戒が必要です。


台風11号09



31日にも台風接近か
   =東・北日本は注意を-気象庁
     8月29日8時53分配信 時事通信


 台風11号は29日午前、小笠原諸島・父島の東海上を北へ進んだ。気象庁によると、30日朝から夕にかけて同諸島に近づいた後、31日から9月1日にかけて暴風域を伴って東・北日本に接近する恐れがある。

 11号は29日午前9時、父島の東約600キロの海上を時速30キロで北へ進んだ。中心気圧は996ヘクトパスカル、中心付近の最大風速は20メートル。東側330キロ以内と西側170キロ以内は15メートル以上の強風域。

 小笠原諸島近海や関東の南海上では、30日は波の高さが6メートルを超える大しけとなる見込みで、警戒が必要という


ブログランキングに参加しています。
にほんブログ村 環境ブログ 天気・気象学へ
にほんブログ村
応援クリックをおねがします。
 

以下、アフィリエイトサイトです。






13:35  |  時事  |  TB(0)  |  CM(0)  |  EDIT  |  Top↑

2009.08.28 (Fri)

最悪の危機は避けそう

 最悪の年、1993年の冷夏の不作は避けそうですね。


不況に不作に、政治不信。


なにかいいことないかしら?


09年産米、北海道など「やや不良」
   =天候不順で3年ぶり低水準-農水省
     8月28日17時44分配信 時事通信

 農水省は28日、2009年産米のコメの作柄概況(15日現在)を発表した。

全国の作付面積の3分の2を占める早場米生産地では、北海道や長野など9道県で作柄が「やや不良」、秋田や宮城、新潟など10県は「平年並み」だった。

西日本を中心とする遅場米地域の生育状況も、静岡、愛媛など12府県が「やや不良」で、群馬など15都府県は「平年並み」。7月の低温や日照不足が響き、3年ぶりの低水準が見込まれる情勢だ。

 同省では、天候不順の影響について「致命的ではなかった」(食糧部)として、記録的な不作だった1993年などに比べれば状況は悪くないと指摘。

9月に好天が続けば、「やや不良」から「平年並み」に改善する地域も出ると期待している。

 一方、低温のあおりでイネが弱い地域が多いため、台風や病害虫による被害を警戒している。 



ブログランキングに参加しています。
にほんブログ村 環境ブログ 天気・気象学へ
にほんブログ村
応援クリックをおねがします。
 

以下、アフィリエイトサイトです。







23:19  |  時事  |  TB(0)  |  CM(0)  |  EDIT  |  Top↑

2009.08.27 (Thu)

ホンダの家庭菜園

自動車で有名な本田技研工業。


最近では、二足歩行ロボット、見た瞬間にガンダムも夢ではないと心躍らせた記憶があります。


また、自家用ジェットの開発・生産もされており、幅広い企業理念に惹かれ、せめて関連企業に就職したいと、本気で考えたこともあります。


そのホンダのHPには、家庭菜園のコーナーが存在しますので紹介します。


耕運機を扱っていますからねぇ。




ブログランキングに参加しています。
にほんブログ村 環境ブログ 天気・気象学へ
にほんブログ村
応援クリックをおねがします。
 

以下、アフィリエイトサイトです。







08:18  |  ワタクシゴト  |  TB(0)  |  CM(0)  |  EDIT  |  Top↑

2009.08.26 (Wed)

家庭菜園って難しいのかな。

 今夏の日照時間は前年比で東日本が79%、西日本が82%、北日本では75%になったそうです。


野菜は高騰しているし、雨水タンクと合わせて、家庭菜園でもしようかしらと考えたりして。。
18:05  |  ワタクシゴト  |  TB(0)  |  CM(0)  |  EDIT  |  Top↑

2009.08.25 (Tue)

もえあがれ!

 今日、お台場近くの潮風公園のガンダムを見に行ってきまーす。



08:12  |  ワタクシゴト  |  TB(0)  |  CM(0)  |  EDIT  |  Top↑

2009.08.24 (Mon)

ひんやりの夏

今年の夏は寒々、そして選挙へ。


熱くなるのか?


夏物商戦 ひんやり…盛り上がらないまま終結へ
8月22日23時24分配信 毎日新聞


 8月も残り1週間余となったが、今年の「夏商戦」は盛り上がりを見せないまま終わりそうだ。7月以降、多雨や昨年に比べ気温が低いなど天候不順が続いた影響で、アイスクリームや清涼飲料などの売り上げは落ち込み、プールなどレジャー施設の客数も軒並み2ケタ減。今月中旬のお盆明けからは蒸し暑い日が続いているが、不振を挽回(ばんかい)するのは難しく、消費の現場はぬかるみに足を取られたままだ。【大塚卓也、和田憲二】

 ◇エアコン販売32.3%減…エコポイント効果帳消し

 7~8月の気温の低さは、政府のエコポイント対象商品となり、売り上げ増が期待されたエアコンも直撃した。エアコンは「気温が販売動向を左右する最大要素」(大手家電量販店)で、民間調査会社GfKジャパンがまとめた7月の販売実績(全国4500店)は前年同月比32.3%減、販売額も27.6%減だった。

 「1~2日の暑さでは、顧客は買い替えを我慢してしまう」(ケーズデンキを展開するケーズホールディングス社長室)といい、ここ数日の暑さでも「V字回復」は望めそうもない。

 電機メーカー側も苦戦を強いられている。ダイキン工業は主力の省機能・低価格の普及機がエコポイント対象外となったことに加え、冷夏の影響で売り上げが半減した。同社は3日ごとにエアコンの増産、減産ができる体制を整えており、残暑に期待するが「例年、お盆を過ぎると売れ行きは落ちる」(広報グループ)という。前年比3割以上も販売が落ち込んだ三菱電機は「マンションや住宅の着工が伸びないことも不振の原因」と分析している。

 ◇プール入場者13%減

 プリンスホテル系列のレジャー施設「大磯ロングビーチ」(神奈川県大磯町)の入場者数は、7月5日~8月20日の累計で約14万5000人と前年比約13%少ない。広報担当者は「台風や低温など天候不順の影響をまともに受けた」と表情を曇らせる。天候が回復した今月12~16日の入場者数は前年比18%増になったが、8月累計では4%減とマイナスのままという。

 ◇ビール類出荷量11.8%減

 7月のビール類出荷量も、前年同月比11.8%減の4618万ケース(1ケース大瓶20本換算)と7月では過去最低で、「8月も厳しい」(サッポロ)。梅雨明けまでは「絶好調」が伝えられたデパートなどのビアガーデンも、7月中旬以降は「天候不順で客足はさっぱり」(大手百貨店)という。

 ◇アイス17%減

 夏の定番のアイスクリームも不振だ。明治乳業によると、7月の売り上げは前年比17%減で、新商品効果があった4~6月の8%増から暗転。特にカップの「かき氷」など氷菓が売れなかった。「気温が30度を超えるとかき氷が売れ始める」(同社)とされるが、7月は最高気温30度以上の真夏日が東京で前年より9日少ない14日で、「冷夏の影響をもろに受けた」という。

 ◇百貨店売上高11.7%減

 衣料品では唯一の「勝ち組」だったユニクロも夏場の業績にブレーキがかかった。7月の売上高は前年比4.2%減と9カ月ぶりの前年割れ。「Tシャツやショートパンツの売れ行きが期待ほどではなかった」(同社)

 水着などを含めた夏物衣料の販売不振は百貨店の苦境に拍車をかけており、7月の全国百貨店売上高は前年比11.7%減と過去最大の落ち込みになった。高島屋は「雨傘やレインコートの売り上げは前年比4割増で悪天候が追い風になった商品もあるが、全体の売り上げを押し上げる力はない」と話す。

 7月の売り上げが7.5%減となったコンビニ業界も「清涼飲料、アイスクリームなどの主力商品と冷やしめんなどはまったく不振」と話す。業界大手のローソンは、通常、8月中旬から売り始めるおでんを8月第1週に前倒し。百貨店などでは秋・冬物商品の販売を前倒しする動きも目立っており、「早く涼しい秋になってもらった方が売り上げにはプラス」との声も漏れる。
02:11  |  時事  |  TB(0)  |  CM(0)  |  EDIT  |  Top↑

2009.08.23 (Sun)

処暑

 今日は処暑(しょしょ)です。


処暑は、二十四節気のひとつで、例年8月23日ごろになります。


またこの日から白露までの期間です。


 太陽黄経は150度。


 暦便覧には「陽気とどまりて、初めて退きやまむとすれば也」とあり、暑さが峠を越えて後退し始めるころです。


七月中。


二百十日・二百二十日とともに台風襲来の特異日とされています。


 処暑の期間の七十二候は以下の通りです。


初候

綿柎開         (めんぷ ひらく)
             綿を包む咢(がく)が開く(日本)

鷹乃祭鳥        (たか すなわち とりを まつる)
             鷹が捕らえた鳥を並べて食べる(中国)


次候

天地始粛        (てんち はじめて しじむ(しゅくす))
             ようやく暑さが鎮まる(日本・中国)


末候

禾乃登          (か すなわち みのる)
              稲が実る(日本・中国)




ブログランキングに参加しています。
にほんブログ村 環境ブログ 天気・気象学へ
にほんブログ村
応援クリックをおねがします。
 

以下、アフィリエイトサイトです。






22:37  |  二十四節気  |  TB(0)  |  CM(0)  |  EDIT  |  Top↑

2009.08.22 (Sat)

ゲリラ豪雨に物申す その2

第二の問題。


安易な使用。


先日の沖縄の事故。


これをゲリラ豪雨で片付けていいのか!


那覇は島です。


ヒートアイランドは非常に起こりにくい。


・・・・・・・・・・・・・・・・・・・・・・・・・・・・・・・・・
ヒートアイランド現象とは都市型気候のひとつで、エアコンの外気や自動車の排気、アスファルトやコンクリートが多く、緑が少ないことによる昇温現象で、ビル群によって海陸風などの自然風を遮断されることによって、ますます昇温を加速させられる。
・・・・・・・・・・・・・・・・・・・・・・・・・・・・・・・・・



さらに、亜熱帯気候。もともと熱帯に近く、スコールは当たり前なはず。


それを「ゲリラ豪雨」という言葉で片付けてしまう安易さ、腹立たしい。



<那覇鉄砲水>
   上流で「ゲリラ豪雨」 20分間に25ミリ
     8月21日2時30分配信 毎日新聞


 那覇市の水路(通称ガーブ川)で作業員4人が流され死亡した事故で、当時現場から数百メートル上流側で「ゲリラ豪雨」が発生していたことが気象庁の調べで分かった。

約20分間に約25ミリの激しい雨で、水路に一気に流れ込んで鉄砲水が起きたとみられる。

沖縄気象台は事故の約50分前、那覇市を含む県南部に大雨・洪水注意報を出しており、気象庁は「気象情報をよく確認して作業を中止していれば、事故は防げた可能性がある」としている。

 事故が発生した19日午後2時前後の雨雲の観測データによると、ゲリラ豪雨があったのは、現場から南東に数百メートル離れた上流地点で、午後1時40分ごろから午後2時ごろまでの約20分間の雨量は、約25ミリに達した。

しかし、現場を含む1キロ四方のエリアでは、午後2時までの1時間雨量はわずか約6ミリだった。

 沖縄地方は19日、南から暖かく湿った空気が入り込んで積乱雲が発達しやすい状態。

沖縄気象台は午後1時7分、県南部で夕方にかけて1時間に最大40ミリの雨が降る恐れがあるとして、大雨・洪水注意報を出していた。

 那覇市のような都市部は、地表がアスファルトで覆われて雨水が吸収されにくく、大雨で河川の水位が急上昇する危険性が高いとされる。

昨年8月には東京都豊島区の下水管工事現場で、作業員5人がゲリラ豪雨による増水で流され死亡した。

 東京大総合防災情報研究センターの須見徹太郎・特任教授は「都市部の小さい河川は短時間の豪雨でもあっという間に増水する。

作業などをする際は気象情報をこまめに確認し、大雨が降りそうな場合はすぐに川から離れるべきだ」と指摘する




ブログランキングに参加しています。
にほんブログ村 環境ブログ 天気・気象学へ
にほんブログ村
応援クリックをおねがします。
 

以下、アフィリエイトサイトです。







20:36  |  気象・天気  |  TB(0)  |  CM(0)  |  EDIT  |  Top↑

2009.08.21 (Fri)

ゲリラ豪雨に物申す その1

既存の夏の風物詩である「夕立」に対し、「ゲリラ豪雨」、何が違うのか?


わたしにははっきり違いがわからない。


ここで、第一の問題。


定義がない。


2008年夏に神戸の都賀川での急激な増水による事故や、東京都の地下下水管内での事故、今月10日の都内での大雨などで、ゲリラ豪雨という言葉が使われ、紙面やネット上を賑わせている。


これほどの被害が出ているのに、なぜ!


定義がない。


いろいろ調べてみたところ、「ゲリラ豪雨」とは

・ごく狭い範囲(局地的)

・都市部

・時間や場所の予測が困難

・地球温暖化やヒートアイランド現象など要因の可能性



もっともらしいことを書いてありますが、ここ数十年の気象学の中で、目新しい事象ではありません。


地球温暖化やヒートアイランド現象に要因があるようにしておけば、その場では説明が終わっているという印象を持ち、薄っぺらい記事と感じています。


非常に不愉快です。
21:13  |  気象・天気  |  TB(0)  |  CM(0)  |  EDIT  |  Top↑

2009.08.20 (Thu)

異常天候早期警戒情報

気象庁からこんなもの出されています。


今年は、冷夏ですからね。



<冷夏>
   日照不足と低温 異常天候早期警戒情報…気象庁
     8月19日20時4分配信 毎日新聞


 8月上旬から中旬、全国各地で記録的な日照不足になったことが、気象庁のまとめで分かった。

下旬も寒気の流れ込みで気温が例年を下回る恐れがあることから、同庁は異常天候早期警戒情報を出して農作物の管理などに注意を呼びかけている。


 同庁によると、1~18日の日照時間は平年に比べて、東北の太平洋側が64%▽関東甲信が78%▽北陸が62%▽近畿の日本海側が64%▽九州北部が74%--で、6~8割にとどまっている。

降水量は東日本から西日本にかけ平年を大きく上回り、台風9号の影響で豪雨となった近畿で平年の213%、四国では同247%となっている。

 太平洋高気圧の張り出しが例年に比べて弱く、南から暖かく湿った空気が入り込みやすいため、大気の状態が不安定になって曇りや雨の日が多くなっているという。


 一方、23日ごろからは気圧の谷が本州付近を通過し、寒気が流れ込む見込み。

そのため、9月1日ごろにかけて各地で気温が平年を1~2度程度下回る可能性が高く、関東甲信で平年より2.0度以上、北陸では2.2度以上低くなる見込みだという。

同庁気候情報課は「今年の晩夏から初秋は、残暑どころか、朝晩は肌寒くなると予想される」と話している。



18:25  |  時事  |  TB(0)  |  CM(0)  |  EDIT  |  Top↑

2009.08.19 (Wed)

コメも野菜も

野菜の値段が高騰しています。

コメも不作のようで、1993年を例に挙げるマスメディアもいます。

いったいどうなるのでしょう?



日照時間:7月、平年の5~6割

農作物被害に緊急対策 /山形

8月15日13時0分配信 毎日新聞


 梅雨前線の停滞で雨が多かった影響で、7月の日照時間が平年の5~6割にとどまった。

山形地方気象台によると、8月も13日までの日照時間は平年の半分程度。

今後も平年より少ない可能性が40%もあり、日照不足による農作物の影響が懸念される。


 7月の日照時間は、新庄市が平年の58%の89時間にとどまり、観測開始の1958年以来、7月としては短い方から5番目だった。

山形は96・1時間。米沢は96・6時間。酒田は119・9時間。

これらの都市の日照時間は、そろって平年の6割前後。

逆に7月の降水量はいずれも平年より3~7割多かった。


 日照不足を受け、県生産技術課は、農作物被害を防ぐための緊急対策を発表した。

水稲は穂ができ始める時期で、いもち病やカメムシが発生しやすいため、早期発見と農薬散布を訴えた。

果樹も、晴れ間を逃さず病害虫を予防するよう呼び掛けた。
23:00  |  時事  |  TB(0)  |  CM(0)  |  EDIT  |  Top↑

2009.08.18 (Tue)

死闘!アシナガバチ襲来!!

玄関すぐ近くの木に蜂の巣を発見しました。


そういやぁ最近、玄関先でぶんぶん蜂が飛んでるなぁと思ってました。


ぶんぶんと3-4匹飛んでいて、その木の葉っぱにも3匹ほど待機しています。


巣にも2,3匹、幼虫にエサを与えているのか、巣の拡張工事をしているのか、なにやら作業をしているようでした。


アシナガハチの巣




巣の形は特徴的な六角形なので、アシナガバチであるのはすぐわかりました。


細かい種類はよくわからず、「キボシアシナガバチ」か「ヤマトアシナガバチ」かなぁ。


アシナガバチは毛虫やイモムシを食べてくれる益虫であり、攻撃性が低くあまり人を襲いません。


処分するかどうか迷いましたが、玄関先なので処分することにしました。


とりあえず、頭に白いタオルを巻き、白尽くめの服装に身を固め、右手に団扇、左手にキン○ョールという武装。


ドラクエで言えば、

武器  キンチョー○
頭   白バンダナ
盾   団扇
鎧   白いTシャツ
小手  なし
膝あて 短パン
くつ  サンダル

キラービー、(人は殺せないハチだけど)相手にはこれで十分。


さて、作戦開始。


○ンチョールを噴射しながら、成虫をひたすらビシバシ。


すべて叩き落してから、巣がくっついている枝葉を、おおばさみに装備変えして、ちょっきん。


10分おきに3回、残存兵力も殲滅。


最後は巣に対し、粉砕の足で会心の一撃!!


ちーーーん!な~む~~~!!


アシナガハチ




ブログランキングに参加しています。
にほんブログ村 環境ブログ 天気・気象学へ
にほんブログ村
応援クリックをおねがします。
 

以下、アフィリエイトサイトです。







19:45  |  ワタクシゴト  |  TB(0)  |  CM(0)  |  EDIT  |  Top↑

2009.08.17 (Mon)

秋の空と逆飛行機雲

秋の訪れが空をみていると、よく感じます。


ここ数日の夏空は、1,2年前の夏とは様子が違います。


まず、暑くない。


そして、じめじめしない。


それもそのはず。


すでに天気図は秋雨の走り、オホーツクと太平洋の高気圧にはさまれた気圧配置になっています。


そして、上空の高積雲の広がり。


そんな空を眺めていましたら、逆飛行機雲を写真に納めることができました。


秋の空と逆飛行機雲その1


秋の空と逆飛行機雲その2


秋の空と逆飛行機雲その3



ブログランキングに参加しています。
にほんブログ村 環境ブログ 天気・気象学へ
にほんブログ村
応援クリックをおねがします。
 

以下、アフィリエイトサイトです。







21:31  |  気象・天気  |  TB(0)  |  CM(0)  |  EDIT  |  Top↑

2009.08.16 (Sun)

秋の訪れ

高積雲



上空に秋の訪れを告げる高積雲が広がっていました。


緑葉のもみじも構図に入れてみました。


今日の天気図は、夏と秋の気団がぶつかりあっていました。


暦の上では秋ですし、葉書を書くときは残暑見舞いになる時期です。


梅雨明けは今年は変でしたが、秋の訪れは確実に近づいているようです。



ブログランキングに参加しています。
にほんブログ村 環境ブログ 天気・気象学へ
にほんブログ村
応援クリックをおねがします。
 

以下、アフィリエイトサイトです。







23:23  |  気象・天気  |  TB(0)  |  CM(0)  |  EDIT  |  Top↑

2009.08.15 (Sat)

終戦記念日

今日は終戦記念日です。


64回目の終戦記念日
   310万人の犠牲悼む
     遺族ら参列、戦没者追悼式8月15日6時2分配信 時事通信


 64回目の終戦記念日を迎えた15日、政府主催の全国戦没者追悼式が東京都千代田区の日本武道館で開かれる。天皇、皇后両陛下や麻生太郎首相、遺族らが参列。


戦争で犠牲となった約310万人の冥福を祈り、平和を願う。


 式典は正午前に開始。麻生首相が式辞を述べた後、正午に全員が1分間黙とう。


天皇陛下のお言葉などに続き、遺族を代表して、父親がニューギニア島で戦死した大坪徳広さん(66)=佐賀県小城市=が追悼の辞を読み上げる。

参院議長は参列するが、衆院が解散したため、衆院議長は4年ぶりの欠席となる。


 厚生労働省によると、参列を予定している遺族は4957人で、最年長は夫を亡くした101歳の女性、最年少は戦没者のひ孫に当たる3歳。高齢化と世代交代が進んでおり、戦没者の父母は2年連続でゼロとなる。


 追悼行事は各地でも行われ、35都道県で計約7万人が参列を予定している。 









ブログランキングに参加しています。
にほんブログ村 環境ブログ 天気・気象学へ
にほんブログ村
応援クリックをおねがします。
 

以下、アフィリエイトサイトです。







23:00  |  時事  |  TB(0)  |  CM(0)  |  EDIT  |  Top↑

2009.08.14 (Fri)

涙腺破裂




全国各地、夏模様。


本来の夏のような天気になったようですね。


今日の金曜ロードショーは「火垂るの墓」でした。






何度見ても、涙腺がやばくなります。


そして、明日はお盆であり、終戦記念日を迎えます。。。







気分は「梅雨明け」 今月初の真夏日 仙台
8月14日14時18分配信 河北新報


 低気圧が北海道の東へ抜けたため、14日の宮城県地方には、やっと夏らしい青空が広がった。


19日ぶりに最高気温が30度以上の真夏日となった仙台市内では、子どもたちが朝から屋外プールに繰り出し、待ちわびた日差しと水の感触を楽しんだ。


 仙台管区気象台によると、宮城県内はおおむね晴れ渡り、気温もぐんぐん上昇。


仙台では正午すぎ、平年を約3度上回る30.2度を観測した。


 日本海の高気圧が東へ進み、宮城県東部は乾いた北西の風が吹きやすくなっている。


 仙台は15日も高気圧に覆われて好天が続き、最高気温は平年並みの27度となる見通し。



ブログランキングに参加しています。
にほんブログ村 環境ブログ 天気・気象学へ
にほんブログ村
応援クリックをおねがします。
 

以下、アフィリエイトサイトです。







23:09  |  時事  |  TB(0)  |  CM(0)  |  EDIT  |  Top↑

2009.08.13 (Thu)

動脈破裂


台風9号によってもたらされた暖湿流は、大雨をもたらしました。


そして、台風との因果があるといわれている地震が発生!!


急激な気圧の変化によって、プレートが動くらしいのですが・・・


大雨によって緩んだ地盤が地震にもろいことは、地震と大雨があたりまえのように起こる日本ではほぼ常識になっています。


しかも、盛り土という地盤の悪さが重なり、日本の大動脈である東名が崩れてしまいました。


帰省ラッシュと高速代1000円も重なり、どうなるのでしょうか???





ブログランキングに参加しています。
にほんブログ村 環境ブログ 天気・気象学へ
にほんブログ村
応援クリックをおねがします。
 

以下、アフィリエイトサイトです。







16:14  |  時事  |  TB(0)  |  CM(0)  |  EDIT  |  Top↑

2009.08.12 (Wed)

ブレイクハンマー

 台風9号による雨にで、水没した車から逃げられずに、救助される事例がありました。


そんなときは専用のこれを使いましょう。






命の選択、めんどくさいのか、もったいないのか、小額の投資で生命を守ることができます。



ブログランキングに参加しています。
にほんブログ村 環境ブログ 天気・気象学へ
にほんブログ村
応援クリックをおねがします。
 

以下、アフィリエイトサイトです。







23:16  |  サバイバル  |  TB(0)  |  CM(0)  |  EDIT  |  Top↑

2009.08.11 (Tue)

不作の年

 梅雨が明けないと、必ず日照時間が短くなり、不作の年となります。


1993年のタイ米を緊急輸入した米騒動を思い出しました。


 ちなみに、6年前の平成15年の作況指数は90です。


今年は最終的にいくつになるんでしょうね。



梅雨明け「なし」 東北南部・北部、6年ぶり
8月10日14時20分配信 河北新報


 仙台管区気象台は10日、東北南部と北部の梅雨明けの特定を見送ると発表した。東北は梅雨明けがないまま、秋を迎えることになる。梅雨明けが特定できなかったのは南部、北部とも2003年以来6年ぶり。

 東北は梅雨入り後、梅雨前線やオホーツク海高気圧の影響でぐずついた天気が続いた。気象庁は立秋(7日)から2日後を梅雨明けの有無の判断期限としているが、今月になっても晴天が続かず、梅雨明け時期の発表をしないことを決めた。

 今年の梅雨入りは東北南部が6月10日ごろ、北部が同11日ごろだった。平年の梅雨明けは南部が7月23日ごろ、北部は同27日ごろ。



ブログランキングに参加しています。
にほんブログ村 環境ブログ 天気・気象学へ
にほんブログ村
応援クリックをおねがします。
 

以下、アフィリエイトサイトです。







.
13:43  |  時事  |  TB(0)  |  CM(0)  |  EDIT  |  Top↑

2009.08.10 (Mon)

伝説の風

 テレビの特番で見たことがあります。


一度では経験してみたいですね。


この前の日食は、屋内の仕事で、まったく拝めず・・・残念。



日食「伝説」の突風吹き抜け、鹿児島大が観測
     8月10日14時43分配信 読売新聞


皆既日食伝説の風



 日本の陸地では46年ぶりに起きた先月22日の皆既日食で、鹿児島大水産学部の仁科文子助教らが、風速が強まり風向が変化したことを観測した。

 日食になると風の吹き方が変わると言われているが、原因はわかっていない。今回の観測はその仕組みに迫る貴重なデータになるという。

 仁科さんらは同大の練習船「かごしま丸」で九州南東沖に繰り出し日食を観測した。皆既時には雲がかかったが、皆既の前後で南西の風が西の風に変わり、風速が約1・5倍に強まった。気温は皆既後に急激に下がった。

 アマチュアの日食観察者の間では、「日食時に風がやみ、その後、突風が吹き抜ける」との話が伝えられているが、突風の観測例はほとんどなく「伝説の風」とも言われている。今回の観測では瞬間的な突風ではないが、強風が確認できた。



ブログランキングに参加しています。
にほんブログ村 環境ブログ 天気・気象学へ
にほんブログ村
応援クリックをおねがします。
 

以下、アフィリエイトサイトです。







17:30  |  時事  |  TB(0)  |  CM(0)  |  EDIT  |  Top↑

2009.08.09 (Sun)

梅雨があけたのに・・・

 中国、四国ではすでに大雨が降っています。


梅雨が明けたというのに、この大雨は腑に落ちません。


 今年はいつもと違うのは、すでに皆さんもお気づきでしょう。


いや、しかし。。。



台風が西日本接近へ
   =低気圧から発達、大雨警戒を-気象庁
     8月9日13時0分配信 時事通信


 日本の南海上にある熱帯低気圧の影響で、四国では9日、非常に激しい雨が降った。


気象庁によると、この熱帯低気圧は今後台風となり、10日朝には西日本に接近する。


九州から東海、甲信地方にかけての広域で、1時間に80ミリ以上の猛烈な雨が局地的に降る恐れがあり、同庁は河川の増水や土砂災害、突風、落雷などに警戒を呼び掛けた。


 熱帯低気圧は9日午前9時、日本の南海上を時速30キロで北北西へ進んだ。

中心気圧は996ヘクトパスカル、中心付近の最大風速は15メートル。その後台風となり、10日午前9時には四国沖を時速30キロで北へ進む見通し。


 10日正午までの24時間予想雨量は、多い所で、近畿南部と三重県が500ミリ、四国太平洋側が350ミリ、四国瀬戸内側と近畿中部が150ミリ、九州北部と中国、甲信が120ミリ、近畿北部が100ミリ。


 九州北部と中国は、これまでの大雨で地盤が緩んでおり、特に土砂災害に警戒が必要という。 




ブログランキングに参加しています。
にほんブログ村 環境ブログ 天気・気象学へ
にほんブログ村
応援クリックをおねがします。
 

以下、アフィリエイトサイトです。







21:07  |  時事  |  TB(0)  |  CM(0)  |  EDIT  |  Top↑

2009.08.08 (Sat)

関東の夕立

 昨日は、夕方から雷雨がすごかったですね。


羽田のMetarにはTSの文字がありました。


 これはサンダーストーム、雷雨のことです。


停電になった場所もあったようですね。




ブログランキングに参加しています。
にほんブログ村 環境ブログ 天気・気象学へ
にほんブログ村
応援クリックをおねがします。
 

以下、アフィリエイトサイトです。







02:51  |  時事  |  TB(0)  |  CM(0)  |  EDIT  |  Top↑

2009.08.07 (Fri)

立秋

立秋(りっしゅう)は、二十四節気のひとつで、例年8月7日ごろです。


また、この日から処暑までの期間も立秋と呼びます。


太陽黄経は135度。


初めて秋の気配が表われてくるころとされ、七月節(旧暦7月)です。


暦便覧では「初めて秋の気立つがゆゑなれば也」と説明されており、暦の上では秋を迎えますが、


実際は暑さが厳しく、残暑の時期です。



この日から暑中見舞いではなく残暑見舞いを出すことになります。


また、立秋に至っても梅雨が明けない場合は、「梅雨明け」の発表はされません。


いまだ、あけていない東北地方の梅雨明け、今年はどうなるのでしょう。



七十二候


初候

涼風至          (りょうふう いたる)
               涼しい風が立ち始める(日本・中国)


次候

寒蝉鳴          (かんせん なく)
               蜩が鳴き始める(日本)
白露降          (はくろ くだる)
               朝露が降り始める(中国)


末候

蒙霧升降         (もうむ しょうごう)
               深い霧が立ち込める(日本)
寒蝉鳴           (かんせん なく)
               蜩が鳴き始める(中国)



ブログランキングに参加しています。
にほんブログ村 環境ブログ 天気・気象学へ
にほんブログ村
応援クリックをおねがします。
 

以下、アフィリエイトサイトです。







18:53  |  二十四節気  |  TB(0)  |  CM(0)  |  EDIT  |  Top↑

2009.08.06 (Thu)

沖縄、航空便、欠航連発

 今日は、各航空会社の沖縄方面関連の航空便が欠航、連発でした。

那覇の滑走路方向は18/36に対し、東の横風で30-40ノットくらい吹いていました。




台風8号、先島諸島に最接近へ
   =東・西日本も大雨の恐れ-気象庁
     8月6日18時45分配信 時事通信

 大型で強い台風8号は6日午後、沖縄・宮古島の南南東の海上を西へ進んだ。

気象庁によると、同日深夜から7日朝にかけて、発達しながら先島諸島にかなり接近する見込みで、暴風や高波、大雨に警戒が必要。東・西日本の太平洋側でも、台風周辺の湿った空気が流れ込み、局地的に非常に激しい雨が降る恐れがある。


 8号は6日午後5時、宮古島の南南東約190キロにあり、時速20キロで西へ進んだ。

中心気圧は960ヘクトパスカル、中心付近の最大風速は40メートル。半径150キロ以内が25メートル以上の暴風域、同650キロ以内が15メートル以上の強風域。


 沖縄・奄美地方の海上は7日にかけて大しけとなるほか、高潮にも警戒が必要。東・西日本の太平洋側でも、うねりを伴う高波に注意が必要という。




ブログランキングに参加しています。
にほんブログ村 環境ブログ 天気・気象学へ
にほんブログ村
応援クリックをおねがします。


以下、アフィリエイトサイトです。








以下、Metarの時系列です。
ROAH 061400Z 12024G38KT 9999 FEW020 BKN025 30/24 Q0994
ROAH 061330Z 12025G38KT 9999 FEW020 BKN025 31/24 Q0993
ROAH 061300Z 11021G31KT 9999 FEW020 SCT025 BKN/// 30/24 Q0993
ROAH 061230Z 12020G32KT 9999 FEW020 BKN025 30/24 Q0993
ROAH 061200Z 11022G34KT 070V140 9999 SCT020 BKN100 BKN/// 30/24 Q0992
ROAH 061130Z 10019G32KT 8000 FEW015 SCT020 BKN100 30/24 Q0992
ROAH 061100Z 11022G41KT 060V140 8000 FEW015 SCT040 BKN/// 30/24 Q0992
ROAH 061030Z 11027G45KT 8000 FEW020 SCT080 BKN/// 31/24 Q0991
ROAH 061000Z 11024G43KT 8000 SCT020 BKN080 BKN/// 31/24 Q0991
ROAH 060930Z 10022G41KT 060V140 8000 FEW015 BKN020 BKN/// 31/24 Q0990
ROAH 060900Z 10025G43KT 070V130 8000 FEW015 SCT020 BKN/// 32/25 Q0989
ROAH 060830Z 10023G38KT 9000 FEW015 SCT020 BKN/// 32/24 Q0988
ROAH 060800Z 10022G44KT 060V120 9000 FEW020 BKN/// 32/25 Q0988
ROAH 060730Z 10025G41KT 060V120 9000 FEW020 BKN/// 32/24 Q0988
ROAH 060700Z 10025G44KT 070V130 9999 FEW020 BKN/// 32/24 Q0989
ROAH 060630Z 10023G38KT 070V130 9999 FEW015 BKN020 33/24 Q0989
ROAH 060600Z 10022G38KT 050V120 9000 FEW015 SCT020 BKN/// 33/24 Q0988
ROAH 060530Z 09021G36KT 060V120 9000 FEW015 SCT020 BKN/// 33/25 Q0989
ROAH 060500Z 10019G32KT 060V130 9000 FEW015 BKN020 32/25 Q0988
ROAH 060430Z 09021G34KT 030V120 9999 FEW015 BKN020 32/25 Q0988
ROAH 060400Z 09023G34KT 060V120 9000 FEW015 BKN020 33/24 Q0988
ROAH 060330Z 08021G38KT 050V120 9000 FEW015 BKN020 32/25 Q0987
ROAH 060310Z 09024G43KT 050V110 9000 FEW010 SCT015 BKN/// 32/25 Q0988 RMK 1CU010 3CU015 A2918
ROAH 060300Z 09019G37KT 050V120 9000 -SHRA FEW010 SCT015 FEW020TCU BKN/// 30/26 Q0988
ROAH 060244Z 10022G40KT 6000 -SHRA SCT010 BKN015 SCT020TCU 30/26 Q0988 RMK 3CU010 6CU015 3TCU020 A2919 TCU NE-OHD-SW MOV W
ROAH 060241Z 10023G40KT 060V120 6000 R36/0400VP1800D SHRA SCT010 BKN015 SCT020TCU 30/26 Q0988 RMK 3CU010 6CU015 3TCU020 A2920 TCU E-OHD-W MOV W
ROAH 060236Z 09022G40KT 060V120 3000 +SHRA SCT010 BKN015 SCT020TCU 31/25 Q0988 RMK 3CU010 6CU015 3TCU020 A2920 TCU E-OHD-W MOV W
ROAH 060230Z 08020G40KT 9000 SHRA SCT010 BKN015 FEW020TCU 32/25 Q0988 WS R36
ROAH 060200Z 08018G37KT 040V110 9000 FEW015 BKN020 32/25 Q0988
ROAH 060130Z 08019G36KT 050V110 9000 FEW010 BKN015 BKN/// 32/24 Q0989
ROAH 060100Z 08019G33KT 050V120 9000 FEW010 BKN015 BKN/// 32/25 Q0988
ROAH 060030Z 08020G35KT 050V110 9999 FEW010 SCT015 BKN/// 31/25 Q0988
ROAH 060000Z 08019G38KT 050V110 9000 -SHRA FEW012 FEW020TCU BKN/// 29/26 Q0988
ROAH 052347Z 08018G31KT 050V120 7000 SHRA FEW012 BKN015 29/26 Q0989 RMK 2CU012 6CU015 A2921 2000S
ROAH 052340Z 08018G31KT 060V120 7000 -SHRA FEW012 BKN015 29/26 Q0989 RMK 2CU012 6CU015 A2920
ROAH 052334Z 07018G28KT 4000 SHRA FEW012 BKN015 30/26 Q0989 RMK 2CU012 6CU015 A2921 9000S-W
ROAH 052330Z 07018G30KT 8000 -SHRA FEW012 BKN015 BKN/// 30/26 Q0988
ROAH 052300Z 07016G33KT 040V110 9999 VCSH FEW012 SCT015 BKN/// 30/26 Q0988
ROAH 052230Z 07017G28KT 9000 -SHRA FEW010 BKN015 FEW020TCU 29/26 Q0988
ROAH 052200Z 07018G31KT 9000 FEW010 BKN015 FEW020TCU 28/26 Q0988
ROAH 052130Z 06020G33KT 030V090 9000 -SHRA FEW012 BKN015 BKN/// 29/26 Q0988
ROAH 052116Z 06019G32KT 7000 SHRA FEW012 BKN015 BKN/// 29/26 Q0987 RMK 1CU012 5CU015 A2917
ROAH 052100Z 06022G36KT 9999 -SHRA FEW012 SCT015 BKN/// 30/26 Q0987
ROAH 052030Z 06018G28KT 040V100 9999 VCSH FEW012 SCT015 BKN/// 29/26 Q0987
ROAH 052000Z 06020G34KT 9000 -SHRA FEW012 BKN015 29/26 Q0987
ROAH 051930Z 06019G33KT 9999 VCSH FEW012 SCT015 BKN/// 29/26 Q0987
ROAH 051900Z 05020G32KT 9999 VCSH SCT015 BKN/// 30/26 Q0988
ROAH 051830Z 05019G31KT 030V100 9999 FEW012 SCT018 BKN/// 29/26 Q0988
ROAH 051800Z 05022G32KT 9999 -SHRA FEW012 BKN015 29/26 Q0989
ROAH 051730Z 05019G35KT 9999 FEW012 BKN015 29/26 Q0989
ROAH 051700Z 05020G34KT 9999 VCSH FEW012 BKN015 29/26 Q0989
ROAH 051630Z 05021G32KT 9999 FEW015 BKN018 29/26 Q0990
ROAH 051600Z 05022G32KT 8000 FEW015 BKN020 29/26 Q0990
ROAH 051530Z 04021G32KT 8000 -SHRA FEW015 BKN020 29/26 Q0990
ROAH 051500Z 05019KT 9999 FEW015 BKN040 29/26 Q0991
ROAH 051430Z 04017KT 8000 -SHRA FEW015 BKN020 29/26 Q0991
ROAH 051411Z 03016G27KT 9999 -SHRA FEW015 BKN020 28/26 Q0992 RMK 1CU015 5CU020 A2930
ROAH 051400Z 03014KT 9999 -SHRA FEW015 BKN020 28/26 Q0992
ROAH 051330Z 02015KT 9999 -SHRA FEW012 BKN020 28/26 Q0992
ROAH 051300Z 04016G27KT 020V080 9999 FEW012 SCT040 BKN/// 28/25 Q0993 RERA
ROAH 051240Z 03016G26KT 9999 VCSH FEW012 FEW025TCU BKN040 27/25 Q0993 RERA RMK 1CU012 1TCU025 5SC040 A2933 TCU 15KM SW-W MOV SW
ROAH 051237Z 04017KT 9999 -SHRA FEW012 FEW025TCU BKN040 27/25 Q0993 RMK 1CU012 1TCU025 5SC040 A2933 TCU 10KM SW-W MOV SW
ROAH 051230Z 04019KT 9999 R36/1000VP1800N SHRA FEW012 SCT025TCU 28/25 Q0993
ROAH 051218Z 02019KT 3000 SHRA FEW012 SCT025TCU 29/26 Q0993 RMK 2CU012 4TCU025 A2934 TCU 5KM N-OHD-S MOV SW
ROAH 051211Z 02021KT 9999 SHRA FEW012 SCT025TCU BKN040 29/26 Q0993 RMK 1CU012 3TCU025 5SC040 A2933 TCU 5KM NE-E-S MOV SW
ROAH 051200Z 02018KT 9999 VCSH FEW012 FEW025TCU BKN040 29/26 Q0993
ROAH 051130Z 02018KT 9999 VCSH FEW012 FEW025TCU BKN/// 29/27 Q0993
ROAH 051100Z 03016KT 9999 VCSH FEW012 SCT020 BKN/// 29/26 Q0993
ROAH 051030Z 02018G28KT 9999 FEW012 SCT100 BKN/// 29/26 Q0993
ROAH 051015Z 02017G27KT 9999 FEW012 SCT100 BKN/// 28/26 Q0993 RMK 1CU012 3AC100 A2935
ROAH 051000Z 02014KT 9999 FEW012 SCT100 BKN/// 28/26 Q0994
ROAH 050930Z 03016KT 9999 -SHRA FEW012 SCT080 BKN100 28/26 Q0993
ROAH 050910Z 04017G27KT 9999 -SHRA FEW012 FEW020TCU BKN070 28/26 Q0994 RMK 2CU012 2TCU020 6AC070 A2936 TCU 10KM S-SW MOV SW
ROAH 050900Z 02020G30KT 8000 SHRA FEW012 SCT020 SCT025TCU 29/26 Q0994
ROAH 050849Z 02020G31KT 9999 SHRA FEW012 SCT020 FEW025TCU 30/26 Q0994 RMK 2CU012 3CU020 2TCU025 A2936 TCU 5KM NW-NE MOV SW
ROAH 050833Z 02015G26KT 9999 -SHRA FEW012 SCT015 FEW020TCU 29/27 Q0994 RMK 1CU012 3CU015 2TCU020 A2936 TCU 3KM SE-S AND 15KM NE MOV SW
ROAH 050830Z 03013KT 9999 -SHRA FEW012 SCT015 FEW020TCU 29/27 Q0994
ROAH 050825Z 03014KT 360V080 9999 -SHRA FEW012 SCT015 FEW020TCU 29/27 Q0994 RMK 1CU012 3CU015 2TCU020 A2935 TCU OHD-SW MOV SW
ROAH 050804Z 02019KT 9999 SHRA FEW012 SCT025TCU BKN100 29/27 Q0994 RMK 2CU012 3TCU025 5AC100 A2935 3000NE TCU 5KM NE AND 10KM S MOV SW
ROAH 050800Z 02022G32KT 9999 -SHRA FEW012 FEW025TCU BKN120 29/27 Q0994
ROAH 050737Z 01021G31KT 8000 SHRA FEW015 SCT025TCU BKN120 32/27 Q0994 RMK 2CU015 3TCU025 5AC120 A2937 TCU OHD MOV SW
ROAH 050730Z 01019KT 9999 -SHRA FEW015 SCT025TCU BKN120 31/27 Q0994
ROAH 050700Z 01021KT 9999 FEW015 SCT030 BKN120 32/27 Q0995
ROAH 050636Z 02019G29KT 9999 FEW015 SCT020 FEW025CB BKN120 31/26 Q0995 RMK 2CU015 3CU020 1CB025 7AC120 A2939 CB S MOV SW
ROAH 050630Z 02020KT 9999 VCSH FEW015 SCT020 FEW025CB BKN120 31/26 Q0995
ROAH 050600Z 01021KT 9999 FEW015 FEW025TCU SCT030 BKN120 31/27 Q0995
ROAH 050530Z 01022KT 9999 FEW015 SCT030 BKN150 32/26 Q0995
ROAH 050500Z 01022KT 9999 FEW015 BKN/// 34/26 Q0995
ROAH 050430Z 01020KT 9999 FEW015 SCT020 BKN/// 33/27 Q0996
ROAH 050400Z 01021KT 9999 FEW015 BKN/// 33/26 Q0996
ROAH 050330Z 01021KT 9999 FEW015 BKN/// 33/26 Q0997
ROAH 050300Z 36021KT 9999 FEW015 BKN/// 32/26 Q0997
ROAH 050230Z 36021KT 9999 FEW015 FEW025TCU BKN/// 33/27 Q0997

23:08  |  時事  |  TB(0)  |  CM(0)  |  EDIT  |  Top↑

2009.08.05 (Wed)

残るは東北地方

 ようやく梅雨明け宣言が、各地でされました。


後は東北地方のみですが、今夏は日照不足と低温などによって、農作物への被害が心配です。


 一昔前に、タイ米を輸入して、まったく売れず公園に捨てられるという情けない事件が起きたことを思い出してしまいました。



2009年8月5日梅雨明け情報




梅雨明け:北陸地方で発表 福井、大野など真夏日を記録 /福井
     8月5日16時2分配信 毎日新聞


 北陸地方の梅雨明けが発表された4日、県内も日本海に中心を置く高気圧の影響で晴天が広がった。発表は昨年より2日早いが、例年に比べ13日遅い。

 気温も各地で上がり、福井地方気象台によると、福井、大野、勝山3市と南越前町(今庄)で最高気温が30度以上の真夏日を記録。

坂井市春江町のエンゼルランドふくいでは子どもたちが梅雨明けを待ちわびたかのように噴水の周りに集まり、水浴びを楽しんでいた。

子ども2人とその友達を連れてきた福井市の主婦、木村敦子さん(42)は「暑いけど、子どもたちの笑顔が見られるので梅雨明けはうれしい」と目を細めていた。




<梅雨明け>九州北部、中国、北陸で 
   いずれも平年より遅く
     8月4日14時30分配信 毎日新聞


 気象庁は4日、九州北部と中国、北陸の3地方で梅雨明けしたとみられると発表した。

九州北部は平年より17日、昨年より29日遅く、中国は平年より15日、昨年より29日遅い。

北陸は平年より13日遅く、昨年より2日早い。

 梅雨前線が本州付近に長く停滞した影響で、九州北部と中国の梅雨明けは、記録が残る1951年以降、梅雨明けを特定できなかった年を除いて最も遅い記録となった。

両地方でこれまで梅雨明けが最も遅かったのは、いずれも98年の8月3日ごろだった。



ブログランキングに参加しています。
にほんブログ村 環境ブログ 天気・気象学へ
にほんブログ村
応援クリックをおねがします。


以下、アフィリエイトサイトです。





23:24  |  時事  |  TB(0)  |  CM(0)  |  EDIT  |  Top↑

2009.08.04 (Tue)

雨水タンク計画

環境対策でやりたいこと

・電気関係の資格を取得して、リチウムバッテリーと太陽光・風力発電システムの構築

・自作生ごみ処理機の製作と管理
   冬に試してみたが、醗酵が進まず断念。

・雨水の利用







 今夏は雨水タンクの設置してみようと考えています。

梅雨明けが遅れてはいますが、まとまった雨が降った記憶はありません。

梅雨が明け、かんかん照りの夏空の中、夕立に期待していても意味がなく、上下水道代と環境対策の両面から考え、雨水タンクは必要だと考えています。



雨水タンクにはいろいろな容量のものがありますが、その貯留時間はどれくらいなのでしょう?

貯留時間


溜まったタンクをジョウロで利用すると、

150リットルでは 約20回分
200リットルでは 約25回分


雨水で家計を援助

雨水で節約



助成金は?

市町村助成金

助成金はあるサイトかた引っ張ってきました。

購入を検討されている方は、改めてご自身で調べてください。

雨水貯蔵タンク






ブログランキングに参加しています。
にほんブログ村 環境ブログ 天気・気象学へ
にほんブログ村
応援クリックをおねがします。


以下、アフィリエイトサイトです。





10:00  |  ワタクシゴト  |  TB(0)  |  CM(0)  |  EDIT  |  Top↑

2009.08.03 (Mon)

近畿・東海、梅雨明け

 大きな被害を残し、梅雨は去っていきました。

梅雨明けがこんなにも遅いと、いつもと違うことが今後起きそうで心配になります。

 不作、疫病、天災の拡大。。。

来た時、かんがえればいいか。。。


近畿、東海が梅雨明け
   =観測史上最も遅く-気象庁
     8月3日11時20分配信 時事通信


 気象庁は3日、近畿地方と東海地方が梅雨明けしたとみられると発表した。

 近畿地方の梅雨明けは昨年より22日、平年より15日遅く、東海地方は昨年より22日、平年より14日遅い。

いずれも記録のある1951年以降、最も遅い梅雨明けという。

 近畿地方と東海地方はいずれも6月9日に梅雨入りしていた。 



ブログランキングに参加しています。
にほんブログ村 環境ブログ 天気・気象学へ
にほんブログ村
応援クリックをおねがします。


以下、アフィリエイトサイトです。





13:32  |  時事  |  TB(0)  |  CM(0)  |  EDIT  |  Top↑
 | BLOGTOP |  NEXT
上記広告は1ヶ月以上更新のないブログに表示されています。新しい記事を書くことで広告を消せます。